Time;durP1;ratioP1;P1;durP2;ratioP2;P2;SDS_P1;SDS_P2;PMS_P1;PMS_P2;Temp;Humidity;BMP_temperature;BMP_pressure;BME280_temperature;BME280_humidity;BME280_pressure;Samples;Min_cycle;Max_cycle;Signal;HPM_P1;HPM_P2
2023/12/21 00:01:35;;;;;;;;;1.00;1.00;;;;;12.11;85.10;101304.22;5057216;28;47242;-70
2023/12/21 00:04:02;;;;;;;;;1.00;1.00;;;;;12.17;85.08;101321.88;5077577;28;45612;-70
2023/12/21 00:06:27;;;;;;;;;2.00;0.00;;;;;12.09;85.33;101311.38;5078254;27;45426;-70
2023/12/21 00:08:52;;;;;;;;;2.25;2.00;;;;;12.19;85.23;101331.59;5062729;28;46190;-70
2023/12/21 00:11:18;;;;;;;;;0.00;0.00;;;;;12.19;85.45;101328.06;5059613;28;47351;-70
2023/12/21 00:13:44;;;;;;;;;2.25;0.00;;;;;12.16;85.57;101315.66;5078745;28;45314;-70
2023/12/21 00:16:09;;;;;;;;;1.00;0.00;;;;;12.09;85.42;101302.50;5076200;28;45357;-70
2023/12/21 00:18:35;;;;;;;;;0.00;0.00;;;;;12.16;85.85;101315.66;5091524;27;45427;-70
2023/12/21 00:21:00;;;;;;;;;1.75;0.75;;;;;12.12;85.81;101295.25;5076629;28;47063;-70
2023/12/21 00:23:25;;;;;;;;;1.75;1.00;;;;;12.20;85.83;101303.06;5060295;28;54354;-70
2023/12/21 00:25:51;;;;;;;;;1.75;1.00;;;;;12.11;86.09;101289.94;5060744;28;45363;-70
2023/12/21 00:28:16;;;;;;;;;1.25;1.25;;;;;12.13;86.11;101290.75;5091279;27;45283;-70
2023/12/21 00:30:41;;;;;;;;;0.50;0.00;;;;;12.19;86.40;101296.81;5077823;28;45537;-70
2023/12/21 00:33:07;;;;;;;;;0.00;0.00;;;;;12.03;86.46;101272.31;5058852;28;46556;-70
2023/12/21 00:35:33;;;;;;;;;0.00;0.00;;;;;12.10;86.13;101274.81;5079178;28;45441;-70
2023/12/21 00:37:58;;;;;;;;;1.00;1.00;;;;;12.03;86.50;101260.75;5070220;27;45327;-70
2023/12/21 00:40:23;;;;;;;;;1.50;0.25;;;;;12.11;86.58;101280.13;5055740;28;46235;-70
2023/12/21 00:42:49;;;;;;;;;1.50;1.00;;;;;12.05;87.04;101261.56;5074520;28;45569;-70
2023/12/21 00:45:14;;;;;;;;;0.00;0.00;;;;;12.03;86.89;101264.31;5080425;27;45772;-70
2023/12/21 00:47:39;;;;;;;;;1.25;0.25;;;;;12.01;86.88;101252.78;5091756;27;45458;-70
2023/12/21 00:50:06;;;;;;;;;1.00;1.00;;;;;12.07;86.88;101265.06;5081079;28;46792;-70
2023/12/21 00:52:31;;;;;;;;;2.25;1.00;;;;;12.03;87.09;101266.09;5081658;28;45383;-70
2023/12/21 00:54:56;;;;;;;;;0.25;0.25;;;;;12.09;87.11;101265.03;5082391;28;45358;-70
2023/12/21 00:57:22;;;;;;;;;4.25;0.00;;;;;12.07;87.18;101253.50;5088743;27;45290;-70
2023/12/21 00:59:48;;;;;;;;;0.50;0.00;;;;;12.13;87.01;101256.88;5080903;28;45323;-70
2023/12/21 01:02:13;;;;;;;;;1.75;0.25;;;;;12.02;86.96;101238.44;5081794;28;45322;-70
2023/12/21 01:04:39;;;;;;;;;1.00;1.00;;;;;12.08;87.03;101234.72;5082128;28;45307;-70
2023/12/21 01:07:04;;;;;;;;;0.50;0.50;;;;;12.07;87.08;101235.66;5082075;27;45399;-70
2023/12/21 01:09:29;;;;;;;;;1.00;1.00;;;;;12.16;87.07;101266.59;5081813;28;45940;-70
2023/12/21 01:11:55;;;;;;;;;1.00;0.00;;;;;12.15;86.96;101255.03;5079347;28;45365;-70
2023/12/21 01:14:21;;;;;;;;;0.00;0.00;;;;;12.19;87.06;101263.81;5081870;28;45596;-70
2023/12/21 01:16:47;;;;;;;;;0.75;0.75;;;;;12.09;87.17;101247.16;5083876;27;45433;-70
2023/12/21 01:19:13;;;;;;;;;2.75;2.25;;;;;12.01;87.32;101217.09;5081821;28;45792;-70
2023/12/21 01:21:38;;;;;;;;;1.00;1.00;;;;;12.17;87.36;101252.28;5079861;27;45394;-70
2023/12/21 01:24:04;;;;;;;;;3.50;1.50;;;;;11.95;87.11;101207.47;5063038;28;45364;-70
2023/12/21 01:26:30;;;;;;;;;1.50;0.50;;;;;11.92;87.40;101214.72;5081375;27;45513;-70
2023/12/21 01:28:55;;;;;;;;;2.00;1.00;;;;;12.10;87.60;101232.00;5063315;28;47698;-70
2023/12/21 01:31:21;;;;;;;;;0.75;0.00;;;;;12.11;87.64;101229.28;5078912;28;45390;-70
2023/12/21 01:33:46;;;;;;;;;0.00;0.00;;;;;12.09;87.71;101220.41;5081576;27;45402;-70
2023/12/21 01:36:11;;;;;;;;;1.25;1.00;;;;;12.02;87.88;101200.13;5081582;28;45517;-70
2023/12/21 01:38:37;;;;;;;;;0.25;0.00;;;;;12.09;87.96;101203.50;5080563;27;62050;-70
2023/12/21 01:41:02;;;;;;;;;2.00;0.00;;;;;12.07;87.84;101194.63;5079355;28;48789;-70
2023/12/21 01:43:27;;;;;;;;;2.50;0.25;;;;;12.04;87.93;101192.91;5069499;28;45466;-70
2023/12/21 01:45:54;;;;;;;;;0.00;0.00;;;;;11.99;87.85;101176.13;5062451;28;45894;-70
2023/12/21 01:48:21;;;;;;;;;0.50;0.50;;;;;12.08;87.79;101186.56;5046043;28;48186;-70
2023/12/21 01:50:47;;;;;;;;;0.00;0.00;;;;;12.02;87.67;101182.25;5079714;28;45494;-70
2023/12/21 01:53:15;;;;;;;;;0.25;0.25;;;;;12.07;87.98;101170.56;5077655;28;45605;-70
2023/12/21 01:55:42;;;;;;;;;2.00;0.50;;;;;12.08;87.99;101165.16;5080186;28;45652;-70
2023/12/21 01:58:09;;;;;;;;;1.25;1.00;;;;;12.01;88.10;101152.88;5062145;28;47304;-70
2023/12/21 02:00:34;;;;;;;;;0.00;0.00;;;;;12.03;88.31;101161.75;5077507;28;46295;-70
2023/12/21 02:03:00;;;;;;;;;1.50;1.00;;;;;11.98;88.22;101136.94;5081004;27;45496;-70
2023/12/21 02:05:26;;;;;;;;;0.00;0.00;;;;;12.10;88.43;101154.41;5080005;28;45645;-70
2023/12/21 02:07:51;;;;;;;;;1.75;0.25;;;;;12.01;88.27;101147.53;5079455;27;45461;-70
2023/12/21 02:10:16;;;;;;;;;1.00;0.00;;;;;12.00;88.11;101135.09;5078665;28;45803;-70
2023/12/21 02:12:42;;;;;;;;;0.00;0.00;;;;;12.17;88.35;101158.63;5079033;27;45552;-70
2023/12/21 02:15:08;;;;;;;;;1.75;0.00;;;;;12.20;88.26;101156.72;5065838;28;45471;-70
2023/12/21 02:17:35;;;;;;;;;2.50;0.00;;;;;12.00;88.31;101124.38;5079386;27;46363;-70
2023/12/21 02:20:01;;;;;;;;;0.00;0.00;;;;;12.05;88.29;101128.66;5078941;28;45719;-70
2023/12/21 02:22:28;;;;;;;;;0.00;0.00;;;;;12.08;88.53;101122.34;5085577;27;45423;-70
2023/12/21 02:24:55;;;;;;;;;0.50;0.50;;;;;11.97;88.64;101103.09;5085632;27;45404;-70
2023/12/21 02:27:20;;;;;;;;;0.00;0.00;;;;;12.14;88.54;101130.16;5080700;28;45379;-70
2023/12/21 02:29:46;;;;;;;;;0.00;0.00;;;;;12.08;88.69;101119.66;5080672;28;45490;-70
2023/12/21 02:32:11;;;;;;;;;0.00;0.00;;;;;12.01;88.84;101110.97;5077360;27;45604;-70
2023/12/21 02:34:36;;;;;;;;;0.00;0.00;;;;;12.04;88.90;101110.88;5080685;28;45236;-70
2023/12/21 02:37:02;;;;;;;;;0.00;0.00;;;;;12.19;89.04;101148.75;5080311;28;45620;-70
2023/12/21 02:39:27;;;;;;;;;0.00;0.00;;;;;12.00;88.88;101129.75;5080463;28;45549;-70
2023/12/21 02:41:53;;;;;;;;;1.00;0.00;;;;;12.12;89.14;101141.84;5079208;27;46744;-70
2023/12/21 02:44:18;;;;;;;;;1.50;0.75;;;;;12.08;89.15;101116.09;5083860;27;45448;-70
2023/12/21 02:46:44;;;;;;;;;0.00;0.00;;;;;12.18;89.09;101133.63;5061873;28;46972;-70
2023/12/21 02:49:09;;;;;;;;;0.25;0.00;;;;;12.22;89.20;101141.47;5080230;28;45474;-70
2023/12/21 02:51:34;;;;;;;;;0.00;0.00;;;;;12.02;89.22;101096.63;5078980;28;45785;-70
2023/12/21 02:54:00;;;;;;;;;1.00;0.00;;;;;12.15;89.45;101112.31;5079613;27;45563;-70
2023/12/21 02:56:25;;;;;;;;;2.00;0.00;;;;;12.19;89.26;101125.53;5078693;28;46303;-70
2023/12/21 02:58:50;;;;;;;;;1.00;0.00;;;;;12.20;89.15;101126.41;5061006;28;45944;-70
2023/12/21 03:01:16;;;;;;;;;0.00;0.00;;;;;12.08;89.53;101102.72;5061675;28;45648;-70
2023/12/21 03:03:41;;;;;;;;;0.00;0.00;;;;;12.17;89.58;101116.69;5079926;27;50257;-70
2023/12/21 03:06:07;;;;;;;;;0.00;0.00;;;;;12.05;89.62;101088.53;5072123;28;46147;-70
2023/12/21 03:08:32;;;;;;;;;0.00;0.00;;;;;12.09;89.73;101094.63;5078002;28;45256;-70
2023/12/21 03:10:57;;;;;;;;;0.00;0.00;;;;;12.09;89.82;101094.63;5061544;28;45331;-70
2023/12/21 03:13:23;;;;;;;;;1.00;0.00;;;;;12.15;89.53;101099.78;5065974;28;46135;-70
2023/12/21 03:15:49;;;;;;;;;0.25;0.00;;;;;12.10;89.69;101085.69;5078868;27;45351;-70
2023/12/21 03:18:15;;;;;;;;;0.00;0.00;;;;;12.21;89.77;101094.25;5078873;27;45597;-70
2023/12/21 03:20:40;;;;;;;;;0.00;0.00;;;;;12.20;89.93;101088.94;5079959;28;45360;-70
2023/12/21 03:23:05;;;;;;;;;0.50;0.00;;;;;12.28;89.53;101102.06;5088591;27;45334;-70
2023/12/21 03:25:31;;;;;;;;;0.00;0.00;;;;;12.17;89.73;101073.84;5079717;27;46250;-70
2023/12/21 03:27:56;;;;;;;;;0.00;0.00;;;;;12.27;90.01;101092.28;5078438;27;45294;-70
2023/12/21 03:30:22;;;;;;;;;0.00;0.00;;;;;12.15;89.88;101067.69;5079825;28;45825;-70
2023/12/21 03:32:47;;;;;;;;;0.00;0.00;;;;;12.12;89.82;101061.56;5087993;27;46543;-70
2023/12/21 03:35:13;;;;;;;;;1.00;0.00;;;;;12.14;89.83;101057.03;5061393;28;45884;-70
2023/12/21 03:37:38;;;;;;;;;1.50;0.00;;;;;12.27;90.06;101070.88;5060542;28;45385;-70
2023/12/21 03:40:06;;;;;;;;;0.00;0.00;;;;;12.22;90.16;101060.31;5061107;28;45373;-70
2023/12/21 03:42:31;;;;;;;;;0.25;0.25;;;;;12.24;90.06;101053.09;5066531;27;45503;-70
2023/12/21 03:44:56;;;;;;;;;0.00;0.00;;;;;12.32;90.15;101056.41;5078052;28;48197;-70
2023/12/21 03:47:22;;;;;;;;;0.00;0.00;;;;;12.14;90.48;101024.91;5060434;28;45363;-70
2023/12/21 03:49:47;;;;;;;;;0.00;0.00;;;;;12.17;90.23;101033.72;5078312;27;45656;-70
2023/12/21 03:52:12;;;;;;;;;0.00;0.00;;;;;12.12;90.42;101034.81;5083536;27;46126;-70
2023/12/21 03:54:38;;;;;;;;;0.00;0.00;;;;;12.29;90.41;101052.97;5077848;28;48232;-70
2023/12/21 03:57:03;;;;;;;;;0.00;0.00;;;;;12.08;90.32;100996.59;5060859;28;45346;-70
2023/12/21 03:59:29;;;;;;;;;2.00;0.00;;;;;12.13;90.38;101008.00;5078142;28;45556;-70
2023/12/21 04:01:56;;;;;;;;;0.00;0.00;;;;;12.16;90.42;101007.00;5082073;27;45357;-70
2023/12/21 04:04:22;;;;;;;;;1.25;0.00;;;;;12.29;90.54;101024.38;5078950;28;46625;-70
2023/12/21 04:06:47;;;;;;;;;1.00;0.00;;;;;12.22;90.48;100988.94;5083631;27;45958;-70
2023/12/21 04:09:12;;;;;;;;;0.00;0.00;;;;;12.16;90.80;100975.78;5078242;28;45327;-70
2023/12/21 04:11:38;;;;;;;;;1.00;0.00;;;;;12.16;90.84;100958.81;5079631;27;45473;-70
2023/12/21 04:14:03;;;;;;;;;0.00;0.00;;;;;12.14;90.85;100944.63;5078843;28;45558;-70
2023/12/21 04:16:28;;;;;;;;;1.00;0.00;;;;;12.13;91.26;100950.91;5077800;28;45353;-70
2023/12/21 04:18:54;;;;;;;;;0.50;0.00;;;;;12.17;90.95;100952.56;5080247;28;45723;-70
2023/12/21 04:21:19;;;;;;;;;0.00;0.00;;;;;12.12;91.01;100933.97;5067644;28;45557;-70
2023/12/21 04:23:45;;;;;;;;;0.00;0.00;;;;;12.28;91.10;100971.78;5086076;27;45414;-70
2023/12/21 04:26:19;;;;;;;;;0.00;0.00;;;;;12.30;91.41;100958.34;5085726;28;45436;-70
2023/12/21 04:28:45;;;;;;;;;0.00;0.00;;;;;12.15;91.14;100949.94;5083994;28;45420;-70
2023/12/21 04:31:16;;;;;;;;;0.00;0.00;;;;;12.15;91.00;100944.59;5085189;27;45643;-70
2023/12/21 04:33:41;;;;;;;;;0.00;0.00;;;;;12.14;90.79;100940.16;5085807;27;46456;-70
2023/12/21 04:36:08;;;;;;;;;0.00;0.00;;;;;12.16;91.04;100948.13;5085511;28;45461;-70
2023/12/21 04:38:33;;;;;;;;;0.00;0.00;;;;;12.30;90.99;100964.56;5065875;28;45398;-70
2023/12/21 04:40:59;;;;;;;;;0.00;0.00;;;;;12.17;91.27;100942.72;5085312;28;50972;-70
2023/12/21 04:43:24;;;;;;;;;0.00;0.00;;;;;12.26;90.97;100956.69;5074046;28;47996;-70
2023/12/21 04:45:49;;;;;;;;;0.00;0.00;;;;;12.30;91.06;100963.72;5085271;28;45397;-70
2023/12/21 04:48:15;;;;;;;;;0.00;0.00;;;;;12.11;91.39;100929.59;5084600;28;45440;-70
2023/12/21 04:50:40;;;;;;;;;0.00;0.00;;;;;12.30;91.50;100961.03;5085278;28;45441;-70
2023/12/21 04:53:05;;;;;;;;;0.00;0.00;;;;;12.17;91.39;100925.81;5090250;27;45441;-70
2023/12/21 04:55:31;;;;;;;;;0.00;0.00;;;;;12.14;91.08;100920.56;5085240;27;45391;-70
2023/12/21 04:57:56;;;;;;;;;0.00;0.00;;;;;12.17;91.69;100931.16;5084499;28;45319;-70
2023/12/21 05:00:21;;;;;;;;;0.00;0.00;;;;;12.27;91.46;100942.41;5084634;28;45486;-70
2023/12/21 05:02:47;;;;;;;;;0.00;0.00;;;;;12.11;91.65;100926.91;5087513;27;51856;-70
2023/12/21 05:05:12;;;;;;;;;0.00;0.00;;;;;12.19;91.63;100927.47;5074561;28;45420;-70
2023/12/21 05:07:37;;;;;;;;;0.00;0.00;;;;;12.10;91.61;100902.88;5085200;28;45371;-70
2023/12/21 05:10:03;;;;;;;;;0.00;0.00;;;;;12.36;91.62;100926.00;5065873;28;45600;-70
2023/12/21 05:12:28;;;;;;;;;0.00;0.00;;;;;12.33;91.59;100927.00;5083240;28;47230;-70
2023/12/21 05:14:54;;;;;;;;;0.00;0.00;;;;;12.22;91.52;100900.59;5066758;28;45265;-70
2023/12/21 05:17:20;;;;;;;;;0.00;0.00;;;;;12.21;91.51;100896.19;5066523;28;45582;-70
2023/12/21 05:19:46;;;;;;;;;0.00;0.00;;;;;12.26;91.51;100892.47;5084470;28;45608;-70
2023/12/21 05:22:11;;;;;;;;;0.00;0.00;;;;;12.30;91.56;100907.50;5088285;27;46463;-70
2023/12/21 05:24:40;;;;;;;;;0.00;0.00;;;;;12.20;91.71;100902.47;5090939;27;45780;-70
2023/12/21 05:27:05;;;;;;;;;0.00;0.00;;;;;12.21;91.63;100900.66;5082869;28;45521;-70
2023/12/21 05:29:31;;;;;;;;;0.00;0.00;;;;;12.17;91.37;100897.22;5066702;28;45578;-70
2023/12/21 05:31:56;;;;;;;;;0.00;0.00;;;;;12.34;91.58;100917.16;5081842;27;45577;-70
2023/12/21 05:34:21;;;;;;;;;0.00;0.00;;;;;12.38;91.71;100913.44;5087630;27;55051;-70
2023/12/21 05:36:47;;;;;;;;;0.00;0.00;;;;;12.40;92.21;100919.59;5080405;28;45460;-71
2023/12/21 05:39:13;;;;;;;;;0.00;0.00;;;;;12.27;91.97;100900.44;5063320;28;45330;-70
2023/12/21 05:41:39;;;;;;;;;0.00;0.00;;;;;12.31;91.95;100912.81;5045384;27;46361;-70
2023/12/21 05:44:04;;;;;;;;;0.00;0.00;;;;;12.16;91.98;100891.94;5088231;27;45327;-70
2023/12/21 05:46:30;;;;;;;;;0.00;0.00;;;;;12.32;91.84;100905.63;5062871;28;45509;-70
2023/12/21 05:48:55;;;;;;;;;0.50;0.00;;;;;12.43;91.90;100906.13;5081659;28;45321;-70
2023/12/21 05:51:20;;;;;;;;;0.00;0.00;;;;;12.33;91.79;100885.94;5062532;28;46519;-70
2023/12/21 05:53:46;;;;;;;;;0.00;0.00;;;;;12.45;91.53;100890.84;5082364;27;45338;-70
2023/12/21 05:56:11;;;;;;;;;0.00;0.00;;;;;12.38;91.68;100867.94;5081144;28;45306;-70
2023/12/21 05:58:36;;;;;;;;;0.00;0.00;;;;;12.48;92.13;100873.78;5062917;28;46801;-70
2023/12/21 06:01:02;;;;;;;;;0.00;0.00;;;;;12.43;92.09;100855.25;5079496;28;45645;-70
2023/12/21 06:03:27;;;;;;;;;0.00;0.00;;;;;12.36;92.68;100840.31;5081881;27;45461;-70
2023/12/21 06:05:53;;;;;;;;;0.00;0.00;;;;;12.42;92.67;100853.50;5078641;28;45354;-70
2023/12/21 06:08:18;;;;;;;;;0.00;0.00;;;;;12.49;92.42;100865.69;5081238;28;45307;-70
2023/12/21 06:10:43;;;;;;;;;0.00;0.00;;;;;12.55;92.43;100860.13;5079623;28;45510;-70
2023/12/21 06:13:09;;;;;;;;;0.00;0.00;;;;;12.41;92.48;100838.34;5079383;27;45622;-70
2023/12/21 06:15:34;;;;;;;;;0.00;0.00;;;;;12.41;92.52;100849.06;5075472;28;45461;-70
2023/12/21 06:17:59;;;;;;;;;0.00;0.00;;;;;12.37;92.21;100834.91;5061453;28;45645;-70
2023/12/21 06:20:26;;;;;;;;;0.00;0.00;;;;;12.36;92.46;100851.94;5080772;28;45397;-70
2023/12/21 06:22:51;;;;;;;;;0.00;0.00;;;;;12.48;92.27;100863.06;5088906;27;45581;-70
2023/12/21 06:25:16;;;;;;;;;0.00;0.00;;;;;12.29;92.13;100818.28;5082811;27;45406;-70
2023/12/21 06:27:42;;;;;;;;;0.00;0.00;;;;;12.39;92.13;100840.22;5079422;28;45396;-70
2023/12/21 06:30:08;;;;;;;;;0.00;0.00;;;;;12.53;91.98;100874.47;5080479;28;45444;-70
2023/12/21 06:32:34;;;;;;;;;0.00;0.00;;;;;12.55;92.01;100883.34;5085063;27;45314;-70
2023/12/21 06:34:59;;;;;;;;;0.00;0.00;;;;;12.42;92.07;100851.69;5063883;28;46162;-70
2023/12/21 06:37:24;;;;;;;;;0.00;0.00;;;;;12.52;91.94;100881.66;5079687;27;45229;-70
2023/12/21 06:39:50;;;;;;;;;0.00;0.00;;;;;12.47;92.11;100875.59;5079428;28;45593;-70
2023/12/21 06:42:15;;;;;;;;;0.00;0.00;;;;;12.44;90.94;100877.53;5081197;27;45272;-70
2023/12/21 06:44:41;;;;;;;;;0.00;0.00;;;;;12.46;91.60;100871.16;5082445;27;45427;-70
2023/12/21 06:47:06;;;;;;;;;0.00;0.00;;;;;12.58;91.76;100900.16;5079085;28;45566;-70
2023/12/21 06:49:31;;;;;;;;;0.00;0.00;;;;;12.57;92.11;100887.69;5061801;28;45656;-70
2023/12/21 06:51:56;;;;;;;;;0.00;0.00;;;;;12.45;91.63;100852.50;5058775;28;46028;-70
2023/12/21 06:54:22;;;;;;;;;0.00;0.00;;;;;12.41;91.77;100868.69;5060620;28;45506;-70
2023/12/21 06:56:47;;;;;;;;;0.00;0.00;;;;;12.60;91.61;100892.94;5078815;27;45605;-70
2023/12/21 06:59:12;;;;;;;;;0.00;0.00;;;;;12.48;91.36;100877.38;5080012;28;45389;-70
2023/12/21 07:01:38;;;;;;;;;0.00;0.00;;;;;12.45;91.52;100865.91;5079849;28;45379;-70
2023/12/21 07:04:03;;;;;;;;;0.00;0.00;;;;;12.63;91.36;100891.97;5080014;27;45577;-70
2023/12/21 07:06:29;;;;;;;;;0.00;0.00;;;;;12.60;91.29;100887.59;5079078;27;45368;-70
2023/12/21 07:08:54;;;;;;;;;0.00;0.00;;;;;12.53;91.13;100870.03;5060702;28;45959;-70
2023/12/21 07:11:20;;;;;;;;;0.00;0.00;;;;;12.69;91.28;100891.72;5079866;28;45425;-70
2023/12/21 07:13:45;;;;;;;;;0.00;0.00;;;;;12.55;91.45;100886.91;5081042;27;45448;-70
2023/12/21 07:16:11;;;;;;;;;0.00;0.00;;;;;12.64;91.53;100896.38;5079132;28;45643;-70
2023/12/21 07:18:37;;;;;;;;;0.00;0.00;;;;;12.71;91.28;100907.72;5078156;28;45673;-70
2023/12/21 07:21:05;;;;;;;;;0.00;0.00;;;;;12.66;91.22;100899.84;5059723;28;45583;-71
2023/12/21 07:23:31;;;;;;;;;0.00;0.00;;;;;12.72;91.23;100907.66;5072419;27;45515;-71
2023/12/21 07:25:57;;;;;;;;;1.00;0.00;;;;;12.79;91.07;100916.34;5072912;28;45303;-71
2023/12/21 07:28:22;;;;;;;;;0.00;0.00;;;;;12.56;90.94;100863.66;5079969;28;45661;-71
2023/12/21 07:30:48;;;;;;;;;0.00;0.00;;;;;12.64;90.97;100888.34;5078384;28;45453;-71
2023/12/21 07:33:13;;;;;;;;;0.00;0.00;;;;;12.64;91.13;100887.47;5076061;28;45420;-71
2023/12/21 07:35:39;;;;;;;;;0.00;0.00;;;;;12.59;91.15;100882.28;5078827;28;45688;-71
2023/12/21 07:38:07;;;;;;;;;0.00;0.00;;;;;12.63;91.06;100894.66;5075158;28;48052;-71
2023/12/21 07:40:33;;;;;;;;;0.00;0.00;;;;;12.68;91.24;100881.94;5077139;27;45766;-73
2023/12/21 07:42:58;;;;;;;;;0.00;0.00;;;;;12.65;91.27;100862.44;5075729;28;45555;-73
2023/12/21 07:45:23;;;;;;;;;0.00;0.00;;;;;12.73;90.89;100865.69;5058832;28;45520;-73
2023/12/21 07:47:49;;;;;;;;;0.00;0.00;;;;;12.88;91.10;100883.84;5074394;28;46744;-73
2023/12/21 07:50:14;;;;;;;;;0.00;0.00;;;;;12.77;91.11;100861.97;5072846;28;45406;-73
2023/12/21 07:52:39;;;;;;;;;0.00;0.00;;;;;12.74;91.11;100857.59;5078500;28;45467;-72
2023/12/21 07:55:06;;;;;;;;;0.00;0.00;;;;;12.90;91.18;100894.50;5076490;28;45576;-70
2023/12/21 07:57:32;;;;;;;;;0.00;0.00;;;;;12.72;91.06;100862.13;5078430;28;45493;-70
2023/12/21 07:59:57;;;;;;;;;0.00;0.00;;;;;12.81;90.90;100860.03;5068924;27;45692;-70
2023/12/21 08:02:22;;;;;;;;;0.00;0.00;;;;;12.84;91.14;100857.22;5077837;28;45460;-70
2023/12/21 08:04:48;;;;;;;;;0.00;0.00;;;;;12.74;91.41;100854.03;5078776;28;47044;-71
2023/12/21 08:07:13;;;;;;;;;0.00;0.00;;;;;12.71;91.22;100844.34;5060309;28;47338;-71
2023/12/21 08:09:38;;;;;;;;;0.00;0.00;;;;;12.76;90.89;100833.41;5077270;28;45512;-71
2023/12/21 08:12:04;;;;;;;;;0.00;0.00;;;;;12.75;91.21;100829.88;5058795;28;45983;-71
2023/12/21 08:14:31;;;;;;;;;0.00;0.00;;;;;12.72;91.10;100830.00;5055045;27;46060;-70
2023/12/21 08:16:59;;;;;;;;;0.00;0.00;;;;;12.74;91.07;100833.47;5069351;28;46613;-70
2023/12/21 08:19:25;;;;;;;;;0.00;0.00;;;;;12.73;91.04;100804.97;5073836;28;46322;-71
2023/12/21 08:21:50;;;;;;;;;0.00;0.00;;;;;12.83;90.80;100824.22;5072209;27;46029;-70
2023/12/21 08:24:15;;;;;;;;;0.00;0.00;;;;;12.80;91.00;100818.97;5076597;27;45526;-71
2023/12/21 08:26:41;;;;;;;;;0.00;0.00;;;;;12.83;90.93;100844.75;5074840;28;47082;-71
2023/12/21 08:29:06;;;;;;;;;0.00;0.00;;;;;12.74;91.60;100808.50;5076937;28;45229;-70
2023/12/21 08:31:32;;;;;;;;;0.00;0.00;;;;;12.84;90.99;100827.75;5075356;28;45832;-70
2023/12/21 08:33:58;;;;;;;;;1.00;1.00;;;;;12.86;91.09;100825.88;5067241;28;45497;-71
2023/12/21 08:36:23;;;;;;;;;0.00;0.00;;;;;12.85;91.11;100821.47;5056426;28;47830;-71
2023/12/21 08:38:48;;;;;;;;;0.00;0.00;;;;;12.78;91.20;100802.09;5055176;28;45467;-71
2023/12/21 08:41:14;;;;;;;;;0.00;0.00;;;;;12.78;91.26;100786.91;5055846;28;45637;-71
2023/12/21 08:43:39;;;;;;;;;0.00;0.00;;;;;12.86;91.21;100786.56;5055800;28;45544;-70
2023/12/21 08:46:05;;;;;;;;;0.00;0.00;;;;;12.87;91.12;100796.34;5054357;28;45780;-70
2023/12/21 08:48:30;;;;;;;;;1.00;0.00;;;;;12.91;91.01;100816.75;5055393;28;45518;-71
2023/12/21 08:50:56;;;;;;;;;0.00;0.00;;;;;13.10;90.92;100840.09;5053594;28;45869;-70
2023/12/21 08:53:21;;;;;;;;;0.00;0.00;;;;;13.06;91.04;100859.91;5052987;28;45587;-71
2023/12/21 08:55:47;;;;;;;;;0.00;0.00;;;;;13.02;91.21;100851.13;5052014;28;46308;-70
2023/12/21 08:58:13;;;;;;;;;0.00;0.00;;;;;12.91;91.08;100816.75;5070561;28;45709;-71
2023/12/21 09:00:38;;;;;;;;;0.00;0.00;;;;;12.94;91.13;100831.81;5051364;28;45612;-71
2023/12/21 09:03:04;;;;;;;;;0.00;0.00;;;;;13.00;91.44;100839.59;5058722;28;45477;-70
2023/12/21 09:05:29;;;;;;;;;0.00;0.00;;;;;12.94;91.34;100838.03;5058982;28;46336;-71
2023/12/21 09:07:54;;;;;;;;;0.00;0.00;;;;;13.10;91.74;100858.88;5062839;28;45421;-71
2023/12/21 09:10:20;;;;;;;;;0.00;0.00;;;;;13.08;91.86;100863.38;5062922;28;45723;-70
2023/12/21 09:12:46;;;;;;;;;0.00;0.00;;;;;12.96;91.59;100846.91;5061254;28;45376;-70
2023/12/21 09:15:11;;;;;;;;;0.00;0.00;;;;;12.91;91.68;100824.78;5063547;28;45431;-70
2023/12/21 09:17:37;;;;;;;;;0.00;0.00;;;;;13.04;91.80;100854.59;5061902;28;45419;-71
2023/12/21 09:20:02;;;;;;;;;0.00;0.00;;;;;12.96;91.91;100846.91;5061257;28;45398;-71
2023/12/21 09:22:28;;;;;;;;;0.00;0.00;;;;;13.05;91.98;100855.50;5061047;28;45431;-71
2023/12/21 09:24:54;;;;;;;;;1.00;0.00;;;;;12.93;92.24;100824.69;5061696;28;47360;-70
2023/12/21 09:27:19;;;;;;;;;0.25;0.00;;;;;13.13;92.20;100864.97;5062111;28;45484;-71
2023/12/21 09:29:45;;;;;;;;;1.00;0.00;;;;;12.93;92.08;100825.59;5062488;28;45417;-71
2023/12/21 09:32:10;;;;;;;;;0.00;0.00;;;;;13.08;92.11;100850.88;5057169;28;45445;-71
2023/12/21 09:34:36;;;;;;;;;0.00;0.00;;;;;12.98;92.09;100828.94;5059644;28;47197;-71
2023/12/21 09:37:05;;;;;;;;;0.00;0.00;;;;;12.93;92.44;100806.84;5062137;28;45462;-71
2023/12/21 09:39:30;;;;;;;;;0.00;0.00;;;;;12.96;92.60;100835.28;5074453;28;45707;-71
2023/12/21 09:42:00;;;;;;;;;0.00;0.00;;;;;13.14;92.68;100858.66;5063889;27;45640;-71
2023/12/21 09:44:27;;;;;;;;;0.00;0.00;;;;;13.12;92.68;100857.84;5082391;27;45731;-70
2023/12/21 09:46:54;;;;;;;;;0.00;0.00;;;;;12.98;92.85;100831.63;5063646;28;45468;-70
2023/12/21 09:49:20;;;;;;;;;0.00;0.00;;;;;13.02;93.13;100816.28;5076287;28;45667;-70
2023/12/21 09:51:46;;;;;;;;;0.00;0.00;;;;;13.01;92.94;100811.00;5080431;28;45508;-70
2023/12/21 09:54:14;;;;;;;;;0.00;0.00;;;;;13.01;93.11;100821.72;5062706;28;48113;-71
2023/12/21 09:56:40;;;;;;;;;0.00;0.00;;;;;13.17;93.16;100836.22;5052715;28;45517;-69
2023/12/21 09:59:07;;;;;;;;;0.00;0.00;;;;;12.93;92.77;100789.88;5061656;28;45651;-67
2023/12/21 10:01:33;;;;;;;;;0.00;0.00;;;;;13.03;93.17;100801.06;5079457;28;45666;-71
2023/12/21 10:03:59;;;;;;;;;0.00;0.00;;;;;13.17;93.42;100836.22;5063397;27;46984;-70
2023/12/21 10:06:26;;;;;;;;;0.00;0.00;;;;;12.95;93.53;100804.94;5083273;28;45269;-71
2023/12/21 10:08:52;;;;;;;;;0.00;0.00;;;;;13.01;93.41;100819.03;5080282;27;45275;-70
2023/12/21 10:11:18;;;;;;;;;0.25;0.00;;;;;13.04;93.34;100806.38;5080149;27;45650;-72
2023/12/21 10:13:49;;;;;;;;;0.00;0.00;;;;;13.13;93.57;100811.38;5063625;28;47523;-70
2023/12/21 10:16:16;;;;;;;;;0.00;0.00;;;;;13.24;93.55;100818.94;5072821;27;45810;-70
2023/12/21 10:18:42;;;;;;;;;0.00;0.00;;;;;13.12;93.45;100806.06;5080179;27;45560;-71
2023/12/21 10:21:10;;;;;;;;;0.00;0.00;;;;;13.05;93.58;100789.38;5082976;27;45633;-71
2023/12/21 10:23:39;;;;;;;;;0.00;0.00;;;;;13.28;93.97;100839.34;5079641;28;45488;-70
2023/12/21 10:26:05;;;;;;;;;0.00;0.00;;;;;13.13;93.91;100813.16;5079934;28;45471;-71
2023/12/21 10:28:30;;;;;;;;;0.00;0.00;;;;;13.22;93.83;100817.28;5081878;28;45448;-71
2023/12/21 10:30:57;;;;;;;;;0.00;0.00;;;;;13.21;93.79;100810.16;5067155;27;45534;-71
2023/12/21 10:33:25;;;;;;;;;0.00;0.00;;;;;13.26;94.04;100809.00;5081518;28;46472;-71
2023/12/21 10:35:51;;;;;;;;;0.00;0.00;;;;;13.30;94.15;100820.50;5079782;27;45638;-70
2023/12/21 10:38:18;;;;;;;;;0.00;0.00;;;;;13.31;94.25;100809.72;5069947;27;45458;-71
2023/12/21 10:40:47;;;;;;;;;0.00;0.00;;;;;13.12;94.21;100774.75;5082585;27;45679;-71
2023/12/21 10:43:16;;;;;;;;;0.00;0.00;;;;;13.22;94.18;100802.06;5061257;28;47475;-70
2023/12/21 10:45:46;;;;;;;;;0.00;0.00;;;;;13.16;94.10;100799.63;5081026;27;45516;-70
2023/12/21 10:48:13;;;;;;;;;0.00;0.00;;;;;13.29;94.53;100822.28;5082203;28;45555;-72
2023/12/21 10:50:39;;;;;;;;;1.00;1.00;;;;;13.20;94.63;100805.72;5080922;28;45575;-71
2023/12/21 10:53:05;;;;;;;;;0.00;0.00;;;;;13.23;94.40;100813.63;5062261;28;48219;-71
2023/12/21 10:55:31;;;;;;;;;0.00;0.00;;;;;13.34;94.58;100844.44;5080141;28;45501;-70
2023/12/21 10:57:58;;;;;;;;;0.00;0.00;;;;;13.22;94.29;100807.41;5061805;28;47087;-71
2023/12/21 11:00:24;;;;;;;;;0.00;0.00;;;;;13.13;94.63;100792.59;5077592;27;45476;-71
2023/12/21 11:02:49;;;;;;;;;0.00;0.00;;;;;13.33;94.84;100823.06;5080581;28;45578;-71
2023/12/21 11:05:26;;;;;;;;;0.00;0.00;;;;;13.25;94.62;100791.22;5081548;27;45520;-70
2023/12/21 11:07:54;;;;;;;;;1.75;0.00;;;;;13.31;94.79;100801.69;5082194;28;45575;-71
2023/12/21 11:10:23;;;;;;;;;0.00;0.00;;;;;13.31;94.73;100803.47;5077992;28;45466;-71
2023/12/21 11:12:50;;;;;;;;;0.00;0.00;;;;;13.30;94.62;100799.91;5079898;28;45363;-71
2023/12/21 11:15:18;;;;;;;;;0.00;0.00;;;;;13.39;94.43;100795.13;5075480;27;45698;-71
2023/12/21 11:17:49;;;;;;;;;1.00;0.50;;;;;13.38;94.57;100779.97;5074007;28;45340;-70